Vindinge, Denmark
Current Conditions -  °F | °C
As of 6:20 AM on Thursday 18 Dec 2014 (Local Time) from EKRK Reporting Station
Haze Haze  
Wind Chill: 36°   Ceiling: 400
Heat Index: 41°   Visibility: 2.7mi
Dew Point: 41°   Wind: 7mph
Humidity: 100%   Direction: 220°SW
Pressure: 29.56"   Gusts: NA
Location:  55.62°N, 12.14°E
Report Text: EKRK 180520Z AUTO 22006KT 4400NDV BR SCT002/// BKN004///05/05 Q1001
Loading
Personal Weather Stations






























Interactive Weather Map New forecast layout! Learn more

10-Day Weather Forecast

Advertisements
Track Severe Weather on mobile